Time,TemperatureF,DewpointF,PressureIn,WindDirection,WindDirectionDegrees,WindSpeedMPH,WindSpeedGustMPH,Humidity,HourlyPrecipIn,Conditions,Clouds,dailyrainin,SoftwareType,DateUTC
2013-05-26 00:03:00,62.0,51.0,30.14,West,270,0.0,-999.0,67,-99.99,,,-99.99,,2013-05-26 04:03:00,
2013-05-26 00:12:00,62.0,51.0,30.14,West,270,0.0,-999.0,67,-99.99,,,-99.99,,2013-05-26 04:12:00,
2013-05-26 00:23:00,62.0,51.0,30.14,West,270,0.0,-999.0,67,-99.99,,,-99.99,,2013-05-26 04:23:00,
2013-05-26 00:33:00,61.0,52.0,30.15,West,270,0.0,-999.0,73,-99.99,,,-99.99,,2013-05-26 04:33:00,
2013-05-26 00:42:00,61.0,52.0,30.15,West,270,0.0,-999.0,73,-99.99,,,-99.99,,2013-05-26 04:42:00,
2013-05-26 00:52:00,61.0,53.0,30.15,West,270,0.0,-999.0,76,-99.99,,,-99.99,,2013-05-26 04:52:00,
2013-05-26 01:02:00,61.0,53.0,30.16,West,270,0.0,-999.0,76,-99.99,,,-99.99,,2013-05-26 05:02:00,
2013-05-26 01:12:00,61.0,53.0,30.16,West,270,0.0,-999.0,76,-99.99,,,-99.99,,2013-05-26 05:12:00,
2013-05-26 01:22:00,60.0,52.0,30.16,West,270,0.0,-999.0,74,-99.99,,,-99.99,,2013-05-26 05:22:00,
2013-05-26 01:32:00,60.0,52.0,30.15,West,270,0.0,-999.0,75,-99.99,,,-99.99,,2013-05-26 05:32:00,
2013-05-26 01:42:00,60.0,52.0,30.15,West,270,0.0,-999.0,75,-99.99,,,-99.99,,2013-05-26 05:42:00,
2013-05-26 01:52:00,60.0,52.0,30.15,West,270,0.0,-999.0,76,-99.99,,,-99.99,,2013-05-26 05:52:00,
2013-05-26 02:01:00,59.0,52.0,30.14,West,270,0.0,-999.0,78,-99.99,,,-99.99,,2013-05-26 06:01:00,
2013-05-26 02:12:00,59.0,52.0,30.14,West,270,0.0,-999.0,78,-99.99,,,-99.99,,2013-05-26 06:12:00,
2013-05-26 02:22:00,59.0,52.0,30.14,West,270,0.0,-999.0,78,-99.99,,,-99.99,,2013-05-26 06:22:00,
2013-05-26 02:32:00,58.0,52.0,30.14,West,270,0.0,-999.0,79,-99.99,,,-99.99,,2013-05-26 06:32:00,
2013-05-26 02:42:00,58.0,52.0,30.14,West,270,0.0,-999.0,79,-99.99,,,-99.99,,2013-05-26 06:42:00,
2013-05-26 02:52:00,58.0,52.0,30.15,West,270,0.0,-999.0,79,-99.99,,,-99.99,,2013-05-26 06:52:00,
2013-05-26 03:01:00,58.0,52.0,30.14,West,270,0.0,-999.0,79,-99.99,,,-99.99,,2013-05-26 07:01:00,
2013-05-26 03:11:00,58.0,52.0,30.14,West,270,0.0,-999.0,79,-99.99,,,-99.99,,2013-05-26 07:11:00,
2013-05-26 03:22:00,57.0,49.0,30.14,West,270,0.0,-999.0,75,-99.99,,,-99.99,,2013-05-26 07:22:00,
2013-05-26 03:32:00,58.0,47.0,30.14,West,270,0.0,-999.0,68,-99.99,,,-99.99,,2013-05-26 07:32:00,
2013-05-26 03:42:00,58.0,47.0,30.14,West,270,0.0,-999.0,68,-99.99,,,-99.99,,2013-05-26 07:42:00,
2013-05-26 03:52:00,58.0,44.0,30.14,West,270,0.0,-999.0,60,-99.99,,,-99.99,,2013-05-26 07:52:00,
2013-05-26 04:01:00,58.0,45.0,30.14,West,270,0.0,-999.0,61,-99.99,,,-99.99,,2013-05-26 08:01:00,
2013-05-26 04:12:00,58.0,45.0,30.14,West,270,0.0,-999.0,61,-99.99,,,-99.99,,2013-05-26 08:12:00,
2013-05-26 04:21:00,59.0,45.0,30.15,West,270,0.0,-999.0,60,-99.99,,,-99.99,,2013-05-26 08:21:00,
2013-05-26 04:32:00,59.0,47.0,30.15,NW,307,0.0,-999.0,65,-99.99,,,-99.99,,2013-05-26 08:32:00,
2013-05-26 04:42:00,59.0,47.0,30.15,NW,307,0.0,-999.0,65,-99.99,,,-99.99,,2013-05-26 08:42:00,
2013-05-26 04:53:00,58.0,43.0,30.14,NW,307,0.0,-999.0,58,-99.99,,,-99.99,,2013-05-26 08:53:00,
2013-05-26 05:01:00,58.0,43.0,30.14,NW,308,0.0,-999.0,58,-99.99,,,-99.99,,2013-05-26 09:01:00,
2013-05-26 05:11:00,58.0,44.0,30.16,North,355,0.0,-999.0,59,-99.99,,,-99.99,,2013-05-26 09:11:00,
2013-05-26 05:21:00,58.0,44.0,30.16,North,355,0.0,-999.0,59,-99.99,,,-99.99,,2013-05-26 09:21:00,
2013-05-26 05:33:00,59.0,44.0,30.16,NNE,26,0.0,-999.0,57,-99.99,,,-99.99,,2013-05-26 09:33:00,
2013-05-26 05:43:00,59.0,44.0,30.16,NNE,26,0.0,-999.0,57,-99.99,,,-99.99,,2013-05-26 09:43:00,
2013-05-26 05:53:00,59.0,44.0,30.17,East,88,1.0,-999.0,57,-99.99,,,-99.99,,2013-05-26 09:53:00,
2013-05-26 06:02:00,59.0,44.0,30.18,ENE,67,1.0,-999.0,58,-99.99,,,-99.99,,2013-05-26 10:02:00,
2013-05-26 06:12:00,59.0,44.0,30.18,ENE,67,1.0,-999.0,58,-99.99,,,-99.99,,2013-05-26 10:12:00,
2013-05-26 06:23:00,59.0,44.0,30.19,ENE,61,1.0,-999.0,58,-99.99,,,-99.99,,2013-05-26 10:23:00,
2013-05-26 06:33:00,58.0,43.0,30.20,ESE,116,0.0,-999.0,58,-99.99,,,-99.99,,2013-05-26 10:33:00,
2013-05-26 06:42:00,58.0,43.0,30.20,ESE,116,0.0,-999.0,58,-99.99,,,-99.99,,2013-05-26 10:42:00,
2013-05-26 06:52:00,59.0,43.0,30.20,ENE,64,1.0,-999.0,56,-99.99,,,-99.99,,2013-05-26 10:52:00,
2013-05-26 07:03:00,59.0,42.0,30.21,East,82,2.0,-999.0,53,-99.99,,,-99.99,,2013-05-26 11:03:00,
2013-05-26 07:11:00,59.0,42.0,30.21,East,82,2.0,-999.0,53,-99.99,,,-99.99,,2013-05-26 11:11:00,
2013-05-26 07:22:00,60.0,43.0,30.22,ENE,63,0.0,-999.0,54,-99.99,,,-99.99,,2013-05-26 11:22:00,
2013-05-26 07:32:00,60.0,43.0,30.23,East,80,0.0,-999.0,54,-99.99,,,-99.99,,2013-05-26 11:32:00,
2013-05-26 07:42:00,60.0,43.0,30.23,East,80,0.0,-999.0,54,-99.99,,,-99.99,,2013-05-26 11:42:00,
2013-05-26 07:52:00,60.0,45.0,30.24,ENE,70,0.0,-999.0,57,-99.99,,,-99.99,,2013-05-26 11:52:00,
2013-05-26 08:02:00,60.0,46.0,30.24,ENE,70,0.0,-999.0,59,-99.99,,,-99.99,,2013-05-26 12:02:00,
2013-05-26 08:12:00,60.0,46.0,30.24,ENE,70,0.0,-999.0,59,-99.99,,,-99.99,,2013-05-26 12:12:00,
2013-05-26 08:22:00,59.0,45.0,30.24,East,88,0.0,-999.0,59,-99.99,,,-99.99,,2013-05-26 12:22:00,
2013-05-26 08:32:00,59.0,45.0,30.24,East,84,0.0,-999.0,60,-99.99,,,-99.99,,2013-05-26 12:32:00,
2013-05-26 08:42:00,59.0,45.0,30.24,East,84,0.0,-999.0,60,-99.99,,,-99.99,,2013-05-26 12:42:00,
2013-05-26 08:52:00,59.0,45.0,30.24,East,84,0.0,-999.0,60,-99.99,,,-99.99,,2013-05-26 12:52:00,
2013-05-26 09:02:00,60.0,45.0,30.25,NNE,30,1.0,-999.0,58,-99.99,,,-99.99,,2013-05-26 13:02:00,
2013-05-26 09:11:00,60.0,45.0,30.25,NNE,30,1.0,-999.0,58,-99.99,,,-99.99,,2013-05-26 13:11:00,
2013-05-26 09:22:00,61.0,45.0,30.25,North,355,2.0,-999.0,56,-99.99,,,-99.99,,2013-05-26 13:22:00,
2013-05-26 09:32:00,61.0,45.0,30.26,NE,53,0.0,-999.0,55,-99.99,,,-99.99,,2013-05-26 13:32:00,
2013-05-26 09:42:00,61.0,45.0,30.26,NE,53,0.0,-999.0,55,-99.99,,,-99.99,,2013-05-26 13:42:00,
2013-05-26 09:52:00,61.0,44.0,30.25,ENE,60,2.0,-999.0,54,-99.99,,,-99.99,,2013-05-26 13:52:00,
2013-05-26 10:02:00,62.0,44.0,30.25,ENE,75,1.0,-999.0,52,-99.99,,,-99.99,,2013-05-26 14:02:00,
2013-05-26 10:11:00,62.0,44.0,30.25,ENE,75,1.0,-999.0,52,-99.99,,,-99.99,,2013-05-26 14:11:00,
2013-05-26 10:22:00,63.0,44.0,30.25,NNW,340,1.0,-999.0,50,-99.99,,,-99.99,,2013-05-26 14:22:00,
2013-05-26 10:32:00,63.0,45.0,30.24,ENE,70,2.0,-999.0,51,-99.99,,,-99.99,,2013-05-26 14:32:00,
2013-05-26 10:42:00,63.0,45.0,30.24,ENE,70,2.0,-999.0,51,-99.99,,,-99.99,,2013-05-26 14:42:00,
2013-05-26 10:52:00,63.0,45.0,30.26,East,90,1.0,-999.0,51,-99.99,,,-99.99,,2013-05-26 14:52:00,
2013-05-26 11:01:00,64.0,44.0,30.26,East,79,1.0,-999.0,49,-99.99,,,-99.99,,2013-05-26 15:01:00,
2013-05-26 11:12:00,64.0,44.0,30.26,East,79,1.0,-999.0,49,-99.99,,,-99.99,,2013-05-26 15:12:00,
2013-05-26 11:22:00,64.0,44.0,30.26,NE,49,1.0,-999.0,48,-99.99,,,-99.99,,2013-05-26 15:22:00,
2013-05-26 11:33:00,64.0,45.0,30.26,ESE,104,1.0,-999.0,50,-99.99,,,-99.99,,2013-05-26 15:33:00,
2013-05-26 11:43:00,64.0,45.0,30.26,ESE,104,1.0,-999.0,50,-99.99,,,-99.99,,2013-05-26 15:43:00,
2013-05-26 11:53:00,66.0,45.0,30.26,NE,55,1.0,-999.0,46,-99.99,,,-99.99,,2013-05-26 15:53:00,
2013-05-26 12:03:00,67.0,46.0,30.26,South,171,0.0,-999.0,46,-99.99,,,-99.99,,2013-05-26 16:03:00,
2013-05-26 12:12:00,67.0,46.0,30.26,South,171,0.0,-999.0,46,-99.99,,,-99.99,,2013-05-26 16:12:00,
2013-05-26 12:23:00,67.0,45.0,30.26,ESE,115,0.0,-999.0,45,-99.99,,,-99.99,,2013-05-26 16:23:00,
2013-05-26 12:33:00,68.0,45.0,30.25,SSE,150,0.0,-999.0,44,-99.99,,,-99.99,,2013-05-26 16:33:00,
2013-05-26 12:42:00,68.0,45.0,30.25,SSE,150,0.0,-999.0,44,-99.99,,,-99.99,,2013-05-26 16:42:00,
2013-05-26 12:53:00,69.0,44.0,30.26,SE,146,0.0,-999.0,40,-99.99,,,-99.99,,2013-05-26 16:53:00,
2013-05-26 13:02:00,68.0,43.0,30.25,SE,135,1.0,-999.0,41,-99.99,,,-99.99,,2013-05-26 17:02:00,
2013-05-26 13:11:00,68.0,43.0,30.25,SE,135,1.0,-999.0,41,-99.99,,,-99.99,,2013-05-26 17:11:00,
2013-05-26 13:22:00,69.0,44.0,30.24,NW,311,1.0,-999.0,41,-99.99,,,-99.99,,2013-05-26 17:22:00,
2013-05-26 13:32:00,70.0,45.0,30.23,SSE,163,1.0,-999.0,40,-99.99,,,-99.99,,2013-05-26 17:32:00,
2013-05-26 13:42:00,70.0,45.0,30.23,SSE,163,1.0,-999.0,40,-99.99,,,-99.99,,2013-05-26 17:42:00,
2013-05-26 13:52:00,72.0,46.0,30.23,SE,144,1.0,-999.0,40,-99.99,,,-99.99,,2013-05-26 17:52:00,
2013-05-26 14:01:00,73.0,44.0,30.22,South,170,1.0,-999.0,35,-99.99,,,-99.99,,2013-05-26 18:01:00,
2013-05-26 14:12:00,73.0,44.0,30.22,South,170,1.0,-999.0,35,-99.99,,,-99.99,,2013-05-26 18:12:00,
2013-05-26 14:22:00,72.0,43.0,30.22,SSE,159,1.0,-999.0,35,-99.99,,,-99.99,,2013-05-26 18:22:00,
2013-05-26 14:32:00,73.0,44.0,30.21,South,189,2.0,-999.0,36,-99.99,,,-99.99,,2013-05-26 18:32:00,
2013-05-26 14:42:00,73.0,44.0,30.21,South,189,2.0,-999.0,36,-99.99,,,-99.99,,2013-05-26 18:42:00,
2013-05-26 14:52:00,74.0,44.0,30.20,SE,146,2.0,-999.0,34,-99.99,,,-99.99,,2013-05-26 18:52:00,
2013-05-26 15:01:00,73.0,44.0,30.19,ESE,123,2.0,-999.0,35,-99.99,,,-99.99,,2013-05-26 19:01:00,
2013-05-26 15:11:00,73.0,44.0,30.19,ESE,123,2.0,-999.0,35,-99.99,,,-99.99,,2013-05-26 19:11:00,
2013-05-26 15:22:00,74.0,45.0,30.19,SSE,147,2.0,-999.0,36,-99.99,,,-99.99,,2013-05-26 19:22:00,
2013-05-26 15:32:00,75.0,45.0,30.18,ENE,70,2.0,-999.0,35,-99.99,,,-99.99,,2013-05-26 19:32:00,
2013-05-26 15:42:00,75.0,45.0,30.18,ENE,70,2.0,-999.0,35,-99.99,,,-99.99,,2013-05-26 19:42:00,
2013-05-26 15:52:00,75.0,46.0,30.18,SSE,151,3.0,-999.0,36,-99.99,,,-99.99,,2013-05-26 19:52:00,
2013-05-26 16:02:00,76.0,46.0,30.17,SSE,167,2.0,-999.0,34,-99.99,,,-99.99,,2013-05-26 20:02:00,
2013-05-26 16:11:00,76.0,46.0,30.17,SSE,167,2.0,-999.0,34,-99.99,,,-99.99,,2013-05-26 20:11:00,
2013-05-26 16:22:00,76.0,46.0,30.17,SSE,168,2.0,-999.0,34,-99.99,,,-99.99,,2013-05-26 20:22:00,
2013-05-26 16:32:00,76.0,46.0,30.16,SE,138,3.0,-999.0,35,-99.99,,,-99.99,,2013-05-26 20:32:00,
2013-05-26 16:42:00,76.0,46.0,30.16,SE,138,3.0,-999.0,35,-99.99,,,-99.99,,2013-05-26 20:42:00,
2013-05-26 16:52:00,75.0,47.0,30.16,ESE,121,1.0,-999.0,37,-99.99,,,-99.99,,2013-05-26 20:52:00,
2013-05-26 17:02:00,76.0,48.0,30.16,SSE,167,2.0,-999.0,37,-99.99,,,-99.99,,2013-05-26 21:02:00,
2013-05-26 17:11:00,76.0,48.0,30.16,SSE,167,2.0,-999.0,37,-99.99,,,-99.99,,2013-05-26 21:11:00,
2013-05-26 17:22:00,77.0,48.0,30.16,West,281,1.0,-999.0,36,-99.99,,,-99.99,,2013-05-26 21:22:00,
2013-05-26 17:33:00,77.0,48.0,30.16,South,189,1.0,-999.0,36,-99.99,,,-99.99,,2013-05-26 21:33:00,
2013-05-26 17:43:00,77.0,48.0,30.16,South,189,1.0,-999.0,36,-99.99,,,-99.99,,2013-05-26 21:43:00,
2013-05-26 17:53:00,77.0,49.0,30.15,SE,138,2.0,-999.0,37,-99.99,,,-99.99,,2013-05-26 21:53:00,
2013-05-26 18:03:00,77.0,50.0,30.15,West,277,2.0,-999.0,39,-99.99,,,-99.99,,2013-05-26 22:03:00,
2013-05-26 18:12:00,77.0,50.0,30.15,West,277,2.0,-999.0,39,-99.99,,,-99.99,,2013-05-26 22:12:00,
2013-05-26 18:23:00,77.0,51.0,30.15,SW,219,2.0,-999.0,40,-99.99,,,-99.99,,2013-05-26 22:23:00,
2013-05-26 18:33:00,77.0,51.0,30.15,SSW,196,2.0,-999.0,41,-99.99,,,-99.99,,2013-05-26 22:33:00,
2013-05-26 18:42:00,76.0,51.0,30.14,West,271,2.0,-999.0,41,-99.99,,,-99.99,,2013-05-26 22:42:00,
2013-05-26 18:53:00,76.0,51.0,30.14,West,271,2.0,-999.0,41,-99.99,,,-99.99,,2013-05-26 22:53:00,
2013-05-26 19:02:00,76.0,51.0,30.14,South,191,1.0,-999.0,42,-99.99,,,-99.99,,2013-05-26 23:02:00,
2013-05-26 19:12:00,76.0,51.0,30.14,South,191,1.0,-999.0,42,-99.99,,,-99.99,,2013-05-26 23:12:00,
2013-05-26 19:22:00,75.0,51.0,30.15,SW,217,2.0,-999.0,43,-99.99,,,-99.99,,2013-05-26 23:22:00,
2013-05-26 19:32:00,75.0,51.0,30.14,South,178,1.0,-999.0,43,-99.99,,,-99.99,,2013-05-26 23:32:00,
2013-05-26 19:43:00,75.0,51.0,30.14,South,178,1.0,-999.0,43,-99.99,,,-99.99,,2013-05-26 23:43:00,
2013-05-26 19:52:00,74.0,51.0,30.15,SSW,198,1.0,-999.0,44,-99.99,,,-99.99,,2013-05-26 23:52:00,
2013-05-26 20:02:00,74.0,51.0,30.15,SW,217,1.0,-999.0,45,-99.99,,,-99.99,,2013-05-27 00:02:00,
2013-05-26 20:11:00,74.0,51.0,30.15,SW,217,1.0,-999.0,45,-99.99,,,-99.99,,2013-05-27 00:11:00,
2013-05-26 20:22:00,73.0,51.0,30.14,South,169,0.0,-999.0,46,-99.99,,,-99.99,,2013-05-27 00:22:00,
2013-05-26 20:32:00,73.0,52.0,30.14,South,177,0.0,-999.0,47,-99.99,,,-99.99,,2013-05-27 00:32:00,
2013-05-26 20:42:00,73.0,52.0,30.14,South,177,0.0,-999.0,47,-99.99,,,-99.99,,2013-05-27 00:42:00,
2013-05-26 20:52:00,72.0,52.0,30.15,South,177,0.0,-999.0,49,-99.99,,,-99.99,,2013-05-27 00:52:00,
2013-05-26 21:01:00,71.0,52.0,30.15,South,177,0.0,-999.0,51,-99.99,,,-99.99,,2013-05-27 01:01:00,
2013-05-26 21:11:00,71.0,52.0,30.15,South,177,0.0,-999.0,51,-99.99,,,-99.99,,2013-05-27 01:11:00,
2013-05-26 21:22:00,70.0,53.0,30.15,South,177,0.0,-999.0,54,-99.99,,,-99.99,,2013-05-27 01:22:00,
2013-05-26 21:32:00,69.0,53.0,30.15,South,177,0.0,-999.0,56,-99.99,,,-99.99,,2013-05-27 01:32:00,
2013-05-26 21:42:00,69.0,54.0,30.15,South,176,0.0,-999.0,58,-99.99,,,-99.99,,2013-05-27 01:42:00,
2013-05-26 21:52:00,69.0,54.0,30.15,South,176,0.0,-999.0,58,-99.99,,,-99.99,,2013-05-27 01:52:00,
2013-05-26 22:02:00,68.0,52.0,30.16,South,176,0.0,-999.0,57,-99.99,,,-99.99,,2013-05-27 02:02:00,
2013-05-26 22:11:00,68.0,52.0,30.16,South,176,0.0,-999.0,57,-99.99,,,-99.99,,2013-05-27 02:11:00,
2013-05-26 22:22:00,67.0,54.0,30.16,South,176,0.0,-999.0,62,-99.99,,,-99.99,,2013-05-27 02:22:00,
2013-05-26 22:32:00,66.0,53.0,30.17,South,176,0.0,-999.0,64,-99.99,,,-99.99,,2013-05-27 02:32:00,
2013-05-26 22:42:00,66.0,53.0,30.17,South,176,0.0,-999.0,64,-99.99,,,-99.99,,2013-05-27 02:42:00,
2013-05-26 22:52:00,65.0,53.0,30.17,South,176,0.0,-999.0,66,-99.99,,,-99.99,,2013-05-27 02:52:00,
2013-05-26 23:02:00,65.0,55.0,30.18,South,177,0.0,-999.0,69,-99.99,,,-99.99,,2013-05-27 03:02:00,
2013-05-26 23:11:00,65.0,55.0,30.18,South,177,0.0,-999.0,69,-99.99,,,-99.99,,2013-05-27 03:11:00,
2013-05-26 23:21:00,64.0,54.0,30.18,South,177,0.0,-999.0,69,-99.99,,,-99.99,,2013-05-27 03:21:00,
2013-05-26 23:33:00,64.0,54.0,30.18,South,176,0.0,-999.0,71,-99.99,,,-99.99,,2013-05-27 03:33:00,
2013-05-26 23:43:00,64.0,54.0,30.18,South,176,0.0,-999.0,71,-99.99,,,-99.99,,2013-05-27 03:43:00,
2013-05-26 23:53:00,63.0,53.0,30.17,South,177,0.0,-999.0,71,-99.99,,,-99.99,,2013-05-27 03:53:00,